Head of Island, Louisiana
Current Conditions -  °F | °C
As of 1:15 AM on Monday 24 Nov 2014 (Local Time) from KHDC Reporting Station
Overcast Overcast  
Wind Chill: 68°   Ceiling: 800
Heat Index: 68°   Visibility: 10mi
Dew Point: 64°   Wind: 7mph
Humidity: 88%   Direction: 220°SW
Pressure: 29.75"   Gusts: NA
Location:  30.3666°N, 90.584°W
Report Text: KHDC 240715Z AUTO 22006KT 10SM OVC008 20/18 A2975 RMK AO2
Loading
Personal Weather Stations






























Interactive Weather Map New forecast layout! Learn more

10-Day Weather Forecast

Advertisements
Track Severe Weather on mobile